Bluegrove, Texas
Current Conditions -  °F | °C
As of 6:35 AM on Monday 20 Oct 2014 (Local Time) from KCWC Reporting Station
Clear Clear  
Wind Chill: 14°   Ceiling: Unl
Heat Index: 14°   Visibility: 10mi
Dew Point: 13°   Wind: 3mph
Humidity: 94%   Direction: 220°SW
Pressure: 30.07"   Gusts: NA
Location:  33.67°N, 98.23°W
Report Text: KCWC 201135Z AUTO 22003KT 10SM CLR 14/13 A3007 RMK AO2 T01400131
Loading
Personal Weather Stations






























Interactive Weather Map
Tropical Storm Tracking
New forecast layout! Learn more

10-Day Weather Forecast

Advertisements
Track Severe Weather on mobile